Swan, Texas
Current Conditions -  °F | °C
As of 10:53 PM on Sunday 21 Dec 2014 (Local Time) from KTYR Reporting Station
Overcast Overcast  
Wind Chill: 50°   Ceiling: 3600
Heat Index: 50°   Visibility: 10mi
Dew Point: 46°   Wind: 7mph
Humidity: 86%   Direction: 180°S
Pressure: 29.83"   Gusts: NA
Location:  32.394°N, 95.4356°W
Report Text: KTYR 220453Z AUTO 18006KT 10SM SCT019 OVC036 10/08 A2983 RMK AO2 SLP099 T01000078
Loading
Personal Weather Stations






























Interactive Weather Map New forecast layout! Learn more

10-Day Weather Forecast

Advertisements
Track Severe Weather on mobile